Brandenburg, KY

3:24 PM EST on November 24, 2014 (GMT -0500)
Old Weldon | Change Station
CLOSE
Current Station
Personal Weather Station
Location: Brandenburg, KY
Elevation: 636 ft
Nearby Weather Stations
Active Advisory: High Wind Advisory

Elev 636 ft 37.97 °N, 86.13 °W | Updated 1 second ago

Overcast
Overcast
47.8 °F
Feels Like 46 °F
N
5.0
Wind Variable Wind from WSW
Gusts 20.0 mph

Today
High -- | Low -- °F
--% Chance of Precip.
Yesterday
High -- | Low -- °F
Precip. -- in
7:34 AM 5:27 PM
Waxing Crescent, 7% visible
Pressure 29.75 in
Visibility 10.0 miles
Clouds Scattered Clouds 2900 ft
Overcast 3800 ft
Windchill 46 °F
Dew Point 38 °F
Humidity 69%
Rainfall 0.02 in
Snow Depth Not available.
UV 1 out of 12
Pollen .10 out of 12
Air Quality Not available.
Flu Activity Not available.
METAR KFTK 241958Z AUTO 23015G19KT 210V280 10SM SCT029 OVC038 08/02 A2974 RMK AO2 SLP073

More Conditions Fewer Conditions

Pressure 29.75 in
Visibility 10.0 miles
Clouds Scattered Clouds 2900 ft
Overcast 3800 ft
Windchill 46 °F
Dew Point 38 °F
Humidity 69%
Rainfall 0.02 in
Snow Depth Not available.
UV 1 out of 12
Pollen .10 out of 12
Air Quality Not available.
Flu Activity Not available.
METAR KFTK 241958Z AUTO 23015G19KT 210V280 10SM SCT029 OVC038 08/02 A2974 RMK AO2 SLP073

More Conditions Fewer Conditions

10-Day Weather Forecast

Almanac

Astronomy

Nov. 24, 2014 Rise Set
Actual Time
Civil Twilight
Nautical Twilight
Astronomical Twilight
Moon
Length of Visible Light
Length of Day
Tomorrow will be .
, % of the Moon is Illuminated

Today's Extremes

State Highs State Lows

Community

WunderPhotos

Upload Photos

1,773,403 photos uploaded!

WunderBlogs® & News

Nearby

Air Quality

  Air Quality AQ Index Pollutant
Not available.

Snow Depth

Station Depth Elevation

Earthquake Activity

City Distance Mag. Time & Date
Minimum magnitude displayed is 2.5.

Coastal Water Temperatures

Place Temperature

Nearby Weather Stations